Flight Track Log - Related Links

Times and Time Zones

All times are in EDT time to prevent confusion due to time zone crossing. See the N143DE flight status page for this flight to view local times or setup timezone preferences in your user account.

Time Position Orientation Groundspeed Altitude Reporting Facility
EDT Latitude Longitude Course Direction KTS MPH feet Rate Location/Type
Sat 12:33:57 PM 36.4108 -82.4392 178° South 154 177 4,900  Level Atlanta Center
Sat 12:34:57 PM 36.3628 -82.4300 171° South 165 190 6,700 1,800 Climbing Atlanta Center
Sat 12:35:57 PM 36.3147 -82.4231 173° South 165 190 8,500 1,800 Climbing Atlanta Center
Sat 12:36:57 PM 36.2644 -82.4139 172° South 180 207 10,300 1,700 Climbing Atlanta Center
Sat 12:37:57 PM 36.2164 -82.3994 166° South 180 207 11,900 1,400 Climbing Atlanta Center
Sat 12:38:00 PM 36.1571 -82.1628 175° South  Level Estimated
Sat 12:38:57 PM 36.1719 -82.3617 146° Southeast 186 214 13,100  Level Atlanta Center
Sat 12:39:57 PM 36.1233 -82.3189 145° Southeast 205 236 14,000 900 Climbing Atlanta Center
Sat 12:40:57 PM 36.0750 -82.2817 148° Southeast 216 249 14,900 900 Climbing Atlanta Center
Sat 12:41:57 PM 36.0222 -82.2392 147° Southeast 216 249 15,800 1,000 Climbing Atlanta Center
Sat 12:42:57 PM 35.9756 -82.1964 143° Southeast 216 249 16,900 1,050 Climbing Atlanta Center
Sat 12:43:57 PM 35.9269 -82.1564 146° Southeast 216 249 17,900 1,100 Climbing Atlanta Center
Sat 12:44:57 PM 35.8783 -82.1167 146° Southeast 210 242 19,100 1,000 Climbing Atlanta Center
Sat 12:45:57 PM 35.8300 -82.0794 148° Southeast 204 235 19,900 900 Climbing Atlanta Center
Sat 12:46:57 PM 35.7856 -82.0419 146° Southeast 207 238 20,900 950 Climbing Atlanta Center
Sat 12:47:57 PM 35.7411 -82.0047 146° Southeast 202 232 21,800 850 Climbing Atlanta Center
Sat 12:48:57 PM 35.6944 -81.9700 149° Southeast 196 226 22,600 700 Climbing Atlanta Center
Sat 12:49:57 PM 35.6503 -81.9356 148° Southeast 191 220 23,200 700 Climbing Atlanta Center
Sat 12:50:57 PM 35.6036 -81.8983 141° Southeast 191 220 24,000 800 Climbing Atlanta Center
Sat 12:51:00 PM 35.5942 -81.8900 141° Southeast  Level Estimated
Sat 12:51:57 PM 35.5611 -81.8611 145° Southeast 191 220 24,800  Level Atlanta Center
Sat 12:52:57 PM 35.5231 -81.8314 148° Southeast 186 214 25,100 150 Climbing Atlanta Center
Sat 12:53:57 PM 35.4703 -81.7947 150° Southeast 202 232 25,100  Level Atlanta Center
Sat 12:54:57 PM 35.4172 -81.7503 146° Southeast 219 252 25,100  Level Atlanta Center
Sat 12:55:57 PM 35.3622 -81.7058 147° Southeast 234 269 25,100  Level Atlanta Center
Sat 12:56:57 PM 35.3050 -81.6592 146° Southeast 247 284 25,100  Level Atlanta Center
Sat 12:57:57 PM 35.2478 -81.6125 146° Southeast 247 284 25,100  Level Atlanta Center
Sat 12:58:57 PM 35.1906 -81.5658 146° Southeast 247 284 25,100  Level Atlanta Center
Sat 12:59:57 PM 35.1353 -81.5219 147° Southeast 247 284 25,100  Level Atlanta Center
Sat 01:00:57 PM 35.0761 -81.4756 147° Southeast 242 278 25,100  Level Atlanta Center
Sat 01:01:57 PM 35.0167 -81.4267 146° Southeast 242 278 25,100  Level Atlanta Center
Sat 01:03:51 PM 34.9139 -81.3483 148° Southeast 245 282 25,100  Level Jacksonville Center
Sat 01:04:51 PM 34.8592 -81.3011 145° Southeast 245 282 25,100  Level Jacksonville Center
Sat 01:05:52 PM 34.8000 -81.2567 148° Southeast 245 282 25,100  Level Jacksonville Center
Sat 01:06:51 PM 34.7431 -81.2125 147° Southeast 245 282 25,100  Level Jacksonville Center
Sat 01:07:51 PM 34.6883 -81.1656 145° Southeast 245 282 25,100  Level Jacksonville Center
Sat 01:08:51 PM 34.6314 -81.1211 147° Southeast 245 282 25,100  Level Jacksonville Center
Sat 01:09:51 PM 34.5744 -81.0794 149° Southeast 238 274 25,100  Level Jacksonville Center
Sat 01:10:51 PM 34.5133 -81.0306 147° Southeast 238 274 25,100  Level Jacksonville Center
Sat 01:11:51 PM 34.4561 -80.9839 146° Southeast 238 274 25,100  Level Jacksonville Center
Sat 01:12:51 PM 34.3992 -80.9422 149° Southeast 243 280 25,100  Level Jacksonville Center
Sat 01:13:51 PM 34.3422 -80.8983 148° Southeast 237 273 25,100  Level Jacksonville Center
Sat 01:14:51 PM 34.2853 -80.8519 146° Southeast 242 278 25,100  Level Jacksonville Center
Sat 01:15:51 PM 34.2386 -80.8103 144° Southeast 242 278 25,100  Level Jacksonville Center
Sat 01:16:51 PM 34.1817 -80.7664 147° Southeast 242 278 25,100  Level Jacksonville Center
Sat 01:17:51 PM 34.1225 -80.7253 150° Southeast 242 278 25,100  Level Jacksonville Center
Sat 01:18:51 PM 34.0653 -80.6767 145° Southeast 242 278 25,100  Level Jacksonville Center
Sat 01:19:51 PM 34.0103 -80.6353 148° Southeast 242 278 25,100 -400 Level Jacksonville Center
Sat 01:20:51 PM 33.9511 -80.5892 147° Southeast 242 278 24,300 -1,000 Descending Jacksonville Center
Sat 01:21:51 PM 33.8875 -80.5433 149° Southeast 249 287 23,100 -1,300 Descending Jacksonville Center
Sat 01:22:51 PM 33.8219 -80.4903 146° Southeast 269 310 21,700 -1,500 Descending Jacksonville Center
Sat 01:23:51 PM 33.7583 -80.4394 146° Southeast 274 315 20,100 -1,650 Descending Jacksonville Center
Sat 01:24:51 PM 33.6947 -80.3914 148° Southeast 274 315 18,400 -1,800 Descending Jacksonville Center
Sat 01:25:51 PM 33.6394 -80.3406 143° Southeast 269 310 16,500 -1,850 Descending Jacksonville Center
Sat 01:26:51 PM 33.5819 -80.2847 141° Southeast 264 304 14,700 -1,800 Descending Jacksonville Center
Sat 01:27:51 PM 33.5244 -80.2317 142° Southeast 264 304 12,900 -1,650 Descending Jacksonville Center
Sat 01:28:51 PM 33.4692 -80.1761 140° Southeast 264 304 11,400 -1,600 Descending Jacksonville Center
Sat 01:29:51 PM 33.4158 -80.1231 140° Southeast 254 292 9,700 -1,750 Descending Jacksonville Center
Sat 01:30:51 PM 33.3603 -80.0700 141° Southeast 254 292 7,900 -1,700 Descending Jacksonville Center
Sat 01:31:51 PM 33.3069 -80.0169 140° Southeast 254 292 6,300 -1,150 Descending Jacksonville Center
Sat 01:32:51 PM 33.2619 -79.9639 135° Southeast 244 281 5,600 -650 Descending Jacksonville Center
Sat 01:33:51 PM 33.2150 -79.9181 141° Southeast 231 266 5,000 -650 Descending Jacksonville Center
Sat 01:34:51 PM 33.1700 -79.8725 140° Southeast 220 253 4,300 -700 Descending Jacksonville Center
Sat 01:36:00 PM 33.1013 -79.8498 151° Southeast  Level Estimated
Sat 01:43:00 PM 32.8978 -79.7829 140° Southeast  Level Estimated
Sat 01:44:00 PM 32.8978 -79.7829 140° Southeast  Level Estimated

Login

Don't have an account? Register now (free) for customized features, flight alerts, and more!